sensor_id;sensor_type;location;lat;lon;timestamp;temperature;humidity
11126;DHT22;5617;54.046;10.676;2022-12-29T00:01:50;8.20;99.90
11126;DHT22;5617;54.046;10.676;2022-12-29T00:03:58;8.30;99.90
11126;DHT22;5617;54.046;10.676;2022-12-29T00:06:06;8.30;99.90
11126;DHT22;5617;54.046;10.676;2022-12-29T00:08:12;8.30;99.90
11126;DHT22;5617;54.046;10.676;2022-12-29T00:10:20;8.30;99.90
11126;DHT22;5617;54.046;10.676;2022-12-29T00:12:27;8.30;99.90
11126;DHT22;5617;54.046;10.676;2022-12-29T00:14:55;8.30;99.90
11126;DHT22;5617;54.046;10.676;2022-12-29T00:17:19;8.40;99.90
11126;DHT22;5617;54.046;10.676;2022-12-29T00:19:26;8.40;99.90
11126;DHT22;5617;54.046;10.676;2022-12-29T00:21:50;8.40;99.90
11126;DHT22;5617;54.046;10.676;2022-12-29T00:24:16;8.40;99.90
11126;DHT22;5617;54.046;10.676;2022-12-29T00:26:42;8.40;99.90
11126;DHT22;5617;54.046;10.676;2022-12-29T00:29:07;8.40;99.90
11126;DHT22;5617;54.046;10.676;2022-12-29T00:31:32;8.40;99.90
11126;DHT22;5617;54.046;10.676;2022-12-29T00:33:56;8.50;99.90
11126;DHT22;5617;54.046;10.676;2022-12-29T00:36:24;8.50;99.90
11126;DHT22;5617;54.046;10.676;2022-12-29T00:38:33;8.50;99.90
11126;DHT22;5617;54.046;10.676;2022-12-29T00:40:59;8.60;99.90
11126;DHT22;5617;54.046;10.676;2022-12-29T00:43:25;8.60;99.90
11126;DHT22;5617;54.046;10.676;2022-12-29T00:45:49;8.60;99.90
11126;DHT22;5617;54.046;10.676;2022-12-29T00:47:57;8.60;99.90
11126;DHT22;5617;54.046;10.676;2022-12-29T00:50:04;8.60;99.90
11126;DHT22;5617;54.046;10.676;2022-12-29T00:52:11;8.60;99.90
11126;DHT22;5617;54.046;10.676;2022-12-29T00:54:19;8.70;99.90
11126;DHT22;5617;54.046;10.676;2022-12-29T00:56:25;8.70;99.90
11126;DHT22;5617;54.046;10.676;2022-12-29T00:58:34;8.70;99.90
11126;DHT22;5617;54.046;10.676;2022-12-29T01:00:40;8.80;99.90
11126;DHT22;5617;54.046;10.676;2022-12-29T01:02:47;8.80;99.90
11126;DHT22;5617;54.046;10.676;2022-12-29T01:04:54;8.80;99.90
11126;DHT22;5617;54.046;10.676;2022-12-29T01:07:01;8.80;99.90
11126;DHT22;5617;54.046;10.676;2022-12-29T01:09:09;8.90;99.90
11126;DHT22;5617;54.046;10.676;2022-12-29T01:11:34;8.80;99.90
11126;DHT22;5617;54.046;10.676;2022-12-29T01:13:42;8.80;99.90
11126;DHT22;5617;54.046;10.676;2022-12-29T01:15:49;8.90;99.90
11126;DHT22;5617;54.046;10.676;2022-12-29T01:17:56;8.90;99.90
11126;DHT22;5617;54.046;10.676;2022-12-29T01:20:04;8.90;99.90
11126;DHT22;5617;54.046;10.676;2022-12-29T01:22:11;8.90;99.90
11126;DHT22;5617;54.046;10.676;2022-12-29T01:24:19;8.90;99.90
11126;DHT22;5617;54.046;10.676;2022-12-29T01:26:26;9.00;99.90
11126;DHT22;5617;54.046;10.676;2022-12-29T01:28:33;9.00;99.90
11126;DHT22;5617;54.046;10.676;2022-12-29T01:30:41;9.00;99.90
11126;DHT22;5617;54.046;10.676;2022-12-29T01:32:48;9.00;99.90
11126;DHT22;5617;54.046;10.676;2022-12-29T01:34:54;9.00;99.90
11126;DHT22;5617;54.046;10.676;2022-12-29T01:37:01;9.00;99.90
11126;DHT22;5617;54.046;10.676;2022-12-29T01:39:08;9.00;99.90
11126;DHT22;5617;54.046;10.676;2022-12-29T01:41:16;9.00;99.90
11126;DHT22;5617;54.046;10.676;2022-12-29T01:43:39;9.00;99.90
11126;DHT22;5617;54.046;10.676;2022-12-29T01:45:49;9.10;99.90
11126;DHT22;5617;54.046;10.676;2022-12-29T01:48:00;9.10;99.90
11126;DHT22;5617;54.046;10.676;2022-12-29T01:50:10;9.10;99.90
11126;DHT22;5617;54.046;10.676;2022-12-29T01:52:18;9.10;99.90
11126;DHT22;5617;54.046;10.676;2022-12-29T01:54:27;9.20;99.90
11126;DHT22;5617;54.046;10.676;2022-12-29T01:56:36;9.20;99.90
11126;DHT22;5617;54.046;10.676;2022-12-29T01:58:46;9.20;99.90
11126;DHT22;5617;54.046;10.676;2022-12-29T02:00:57;9.20;99.90
11126;DHT22;5617;54.046;10.676;2022-12-29T02:03:06;9.20;99.90
11126;DHT22;5617;54.046;10.676;2022-12-29T02:05:17;9.20;99.90
11126;DHT22;5617;54.046;10.676;2022-12-29T02:07:26;9.30;99.90
11126;DHT22;5617;54.046;10.676;2022-12-29T02:09:34;9.30;99.90
11126;DHT22;5617;54.046;10.676;2022-12-29T02:11:41;9.30;99.90
11126;DHT22;5617;54.046;10.676;2022-12-29T02:13:48;9.30;99.90
11126;DHT22;5617;54.046;10.676;2022-12-29T02:16:09;9.30;99.90
11126;DHT22;5617;54.046;10.676;2022-12-29T02:18:27;9.30;99.90
11126;DHT22;5617;54.046;10.676;2022-12-29T02:21:12;9.30;99.90
11126;DHT22;5617;54.046;10.676;2022-12-29T02:26:16;9.30;99.90
11126;DHT22;5617;54.046;10.676;2022-12-29T02:28:47;9.30;99.90
11126;DHT22;5617;54.046;10.676;2022-12-29T02:31:07;9.30;99.90
11126;DHT22;5617;54.046;10.676;2022-12-29T02:33:27;9.30;99.90
11126;DHT22;5617;54.046;10.676;2022-12-29T02:35:43;9.30;99.90
11126;DHT22;5617;54.046;10.676;2022-12-29T02:37:59;9.30;99.90
11126;DHT22;5617;54.046;10.676;2022-12-29T02:40:17;9.30;99.90
11126;DHT22;5617;54.046;10.676;2022-12-29T02:42:34;9.30;99.90
11126;DHT22;5617;54.046;10.676;2022-12-29T02:44:50;9.30;99.90
11126;DHT22;5617;54.046;10.676;2022-12-29T02:47:04;9.30;99.90
11126;DHT22;5617;54.046;10.676;2022-12-29T02:49:19;9.30;99.90
11126;DHT22;5617;54.046;10.676;2022-12-29T02:51:29;9.30;99.90
11126;DHT22;5617;54.046;10.676;2022-12-29T02:53:38;9.30;99.90
11126;DHT22;5617;54.046;10.676;2022-12-29T02:56:03;9.30;99.90
11126;DHT22;5617;54.046;10.676;2022-12-29T02:58:18;9.30;99.90
11126;DHT22;5617;54.046;10.676;2022-12-29T03:00:25;9.30;99.90
11126;DHT22;5617;54.046;10.676;2022-12-29T03:03:05;9.30;99.90
11126;DHT22;5617;54.046;10.676;2022-12-29T03:05:42;9.30;99.90
11126;DHT22;5617;54.046;10.676;2022-12-29T03:08:03;9.30;99.90
11126;DHT22;5617;54.046;10.676;2022-12-29T03:10:19;9.30;99.90
11126;DHT22;5617;54.046;10.676;2022-12-29T03:12:36;9.30;99.90
11126;DHT22;5617;54.046;10.676;2022-12-29T03:15:09;9.30;99.90
11126;DHT22;5617;54.046;10.676;2022-12-29T03:17:40;9.30;99.90
11126;DHT22;5617;54.046;10.676;2022-12-29T03:19:52;9.30;99.90
11126;DHT22;5617;54.046;10.676;2022-12-29T03:22:04;9.40;99.90
11126;DHT22;5617;54.046;10.676;2022-12-29T03:24:31;9.40;99.90
11126;DHT22;5617;54.046;10.676;2022-12-29T03:26:41;9.40;99.90
11126;DHT22;5617;54.046;10.676;2022-12-29T03:28:51;9.40;99.90
11126;DHT22;5617;54.046;10.676;2022-12-29T03:30:59;9.40;99.90
11126;DHT22;5617;54.046;10.676;2022-12-29T03:33:09;9.40;99.90
11126;DHT22;5617;54.046;10.676;2022-12-29T03:35:20;9.50;99.90
11126;DHT22;5617;54.046;10.676;2022-12-29T03:37:32;9.50;99.90
11126;DHT22;5617;54.046;10.676;2022-12-29T03:39:42;9.50;99.90
11126;DHT22;5617;54.046;10.676;2022-12-29T03:41:52;9.50;99.90
11126;DHT22;5617;54.046;10.676;2022-12-29T03:44:01;9.50;99.90
11126;DHT22;5617;54.046;10.676;2022-12-29T03:46:09;9.60;99.90
11126;DHT22;5617;54.046;10.676;2022-12-29T03:48:16;9.50;99.90
11126;DHT22;5617;54.046;10.676;2022-12-29T03:50:24;9.60;99.90
11126;DHT22;5617;54.046;10.676;2022-12-29T03:52:31;9.60;99.90
11126;DHT22;5617;54.046;10.676;2022-12-29T03:54:38;9.60;99.90
11126;DHT22;5617;54.046;10.676;2022-12-29T03:56:45;9.60;99.90
11126;DHT22;5617;54.046;10.676;2022-12-29T03:58:51;9.60;99.90
11126;DHT22;5617;54.046;10.676;2022-12-29T04:00:58;9.60;99.90
11126;DHT22;5617;54.046;10.676;2022-12-29T04:03:05;9.60;99.90
11126;DHT22;5617;54.046;10.676;2022-12-29T04:05:13;9.60;99.90
11126;DHT22;5617;54.046;10.676;2022-12-29T04:07:21;9.70;99.90
11126;DHT22;5617;54.046;10.676;2022-12-29T04:09:28;9.70;99.90
11126;DHT22;5617;54.046;10.676;2022-12-29T04:11:35;9.70;99.90
11126;DHT22;5617;54.046;10.676;2022-12-29T04:13:42;9.70;99.90
11126;DHT22;5617;54.046;10.676;2022-12-29T04:15:49;9.80;99.90
11126;DHT22;5617;54.046;10.676;2022-12-29T04:17:55;9.80;99.90
11126;DHT22;5617;54.046;10.676;2022-12-29T04:20:03;9.80;99.90
11126;DHT22;5617;54.046;10.676;2022-12-29T04:22:29;9.80;99.90
11126;DHT22;5617;54.046;10.676;2022-12-29T04:24:36;9.80;99.90
11126;DHT22;5617;54.046;10.676;2022-12-29T04:26:43;9.80;99.90
11126;DHT22;5617;54.046;10.676;2022-12-29T04:28:50;9.80;99.90
11126;DHT22;5617;54.046;10.676;2022-12-29T04:30:57;9.80;99.90
11126;DHT22;5617;54.046;10.676;2022-12-29T04:33:03;9.80;99.90
11126;DHT22;5617;54.046;10.676;2022-12-29T04:35:10;9.80;99.90
11126;DHT22;5617;54.046;10.676;2022-12-29T04:37:17;9.80;99.90
11126;DHT22;5617;54.046;10.676;2022-12-29T04:39:25;9.90;99.90
11126;DHT22;5617;54.046;10.676;2022-12-29T04:41:32;9.90;99.90
11126;DHT22;5617;54.046;10.676;2022-12-29T04:43:39;9.90;99.90
11126;DHT22;5617;54.046;10.676;2022-12-29T04:45:46;10.00;99.90
11126;DHT22;5617;54.046;10.676;2022-12-29T04:47:53;10.00;99.90
11126;DHT22;5617;54.046;10.676;2022-12-29T04:50:00;10.00;99.90
11126;DHT22;5617;54.046;10.676;2022-12-29T04:52:07;10.00;99.90
11126;DHT22;5617;54.046;10.676;2022-12-29T04:54:14;10.00;99.90
11126;DHT22;5617;54.046;10.676;2022-12-29T04:56:22;10.00;99.90
11126;DHT22;5617;54.046;10.676;2022-12-29T04:58:29;10.00;99.90
11126;DHT22;5617;54.046;10.676;2022-12-29T05:00:36;10.10;99.90
11126;DHT22;5617;54.046;10.676;2022-12-29T05:02:43;10.10;99.90
11126;DHT22;5617;54.046;10.676;2022-12-29T05:04:49;10.10;99.90
11126;DHT22;5617;54.046;10.676;2022-12-29T05:06:56;10.10;99.90
11126;DHT22;5617;54.046;10.676;2022-12-29T05:09:03;10.10;99.90
11126;DHT22;5617;54.046;10.676;2022-12-29T05:11:10;10.10;99.90
11126;DHT22;5617;54.046;10.676;2022-12-29T05:13:18;10.10;99.90
11126;DHT22;5617;54.046;10.676;2022-12-29T05:15:26;10.10;99.90
11126;DHT22;5617;54.046;10.676;2022-12-29T05:17:33;10.10;99.90
11126;DHT22;5617;54.046;10.676;2022-12-29T05:19:41;10.10;99.90
11126;DHT22;5617;54.046;10.676;2022-12-29T05:21:48;10.10;99.90
11126;DHT22;5617;54.046;10.676;2022-12-29T05:23:55;10.10;99.90
11126;DHT22;5617;54.046;10.676;2022-12-29T05:26:02;10.10;99.90
11126;DHT22;5617;54.046;10.676;2022-12-29T05:28:08;10.10;99.90
11126;DHT22;5617;54.046;10.676;2022-12-29T05:30:17;10.20;99.90
11126;DHT22;5617;54.046;10.676;2022-12-29T05:32:24;10.20;99.90
11126;DHT22;5617;54.046;10.676;2022-12-29T05:34:31;10.20;99.90
11126;DHT22;5617;54.046;10.676;2022-12-29T05:36:38;10.20;99.90
11126;DHT22;5617;54.046;10.676;2022-12-29T05:38:45;10.20;99.90
11126;DHT22;5617;54.046;10.676;2022-12-29T05:40:52;10.20;99.90
11126;DHT22;5617;54.046;10.676;2022-12-29T05:42:58;10.20;99.90
11126;DHT22;5617;54.046;10.676;2022-12-29T05:45:07;10.20;99.90
11126;DHT22;5617;54.046;10.676;2022-12-29T05:47:15;10.20;99.90
11126;DHT22;5617;54.046;10.676;2022-12-29T05:49:22;10.20;99.90
11126;DHT22;5617;54.046;10.676;2022-12-29T05:51:29;10.20;99.90
11126;DHT22;5617;54.046;10.676;2022-12-29T05:53:35;10.20;99.90
11126;DHT22;5617;54.046;10.676;2022-12-29T05:55:42;10.20;99.90
11126;DHT22;5617;54.046;10.676;2022-12-29T05:57:49;10.10;99.90
11126;DHT22;5617;54.046;10.676;2022-12-29T05:59:56;10.20;99.90
11126;DHT22;5617;54.046;10.676;2022-12-29T06:02:03;10.20;99.90
11126;DHT22;5617;54.046;10.676;2022-12-29T06:04:11;10.10;99.90
11126;DHT22;5617;54.046;10.676;2022-12-29T06:06:18;10.10;99.90
11126;DHT22;5617;54.046;10.676;2022-12-29T06:08:25;10.10;99.90
11126;DHT22;5617;54.046;10.676;2022-12-29T06:10:32;10.10;99.90
11126;DHT22;5617;54.046;10.676;2022-12-29T06:12:38;10.10;99.90
11126;DHT22;5617;54.046;10.676;2022-12-29T06:14:45;10.10;99.90
11126;DHT22;5617;54.046;10.676;2022-12-29T06:16:52;10.10;99.90
11126;DHT22;5617;54.046;10.676;2022-12-29T06:18:59;10.10;99.90
11126;DHT22;5617;54.046;10.676;2022-12-29T06:21:07;10.10;99.90
11126;DHT22;5617;54.046;10.676;2022-12-29T06:23:14;10.10;99.90
11126;DHT22;5617;54.046;10.676;2022-12-29T06:25:22;10.10;99.90
11126;DHT22;5617;54.046;10.676;2022-12-29T06:27:28;10.20;99.90
11126;DHT22;5617;54.046;10.676;2022-12-29T06:29:36;10.20;99.90
11126;DHT22;5617;54.046;10.676;2022-12-29T06:31:46;10.20;99.90
11126;DHT22;5617;54.046;10.676;2022-12-29T06:33:54;10.20;99.90
11126;DHT22;5617;54.046;10.676;2022-12-29T06:36:01;10.20;99.90
11126;DHT22;5617;54.046;10.676;2022-12-29T06:38:09;10.20;99.90
11126;DHT22;5617;54.046;10.676;2022-12-29T06:40:16;10.20;99.90
11126;DHT22;5617;54.046;10.676;2022-12-29T06:42:23;10.20;99.90
11126;DHT22;5617;54.046;10.676;2022-12-29T06:44:30;10.30;99.90
11126;DHT22;5617;54.046;10.676;2022-12-29T06:46:37;10.20;99.90
11126;DHT22;5617;54.046;10.676;2022-12-29T06:48:44;10.30;99.90
11126;DHT22;5617;54.046;10.676;2022-12-29T06:50:50;10.30;99.90
11126;DHT22;5617;54.046;10.676;2022-12-29T06:52:57;10.30;99.90
11126;DHT22;5617;54.046;10.676;2022-12-29T06:55:06;10.20;99.90
11126;DHT22;5617;54.046;10.676;2022-12-29T06:57:13;10.30;99.90
11126;DHT22;5617;54.046;10.676;2022-12-29T06:59:20;10.30;99.90
11126;DHT22;5617;54.046;10.676;2022-12-29T07:01:27;10.30;99.90
11126;DHT22;5617;54.046;10.676;2022-12-29T07:03:34;10.30;99.90
11126;DHT22;5617;54.046;10.676;2022-12-29T07:05:41;10.30;99.90
11126;DHT22;5617;54.046;10.676;2022-12-29T07:07:48;10.20;99.90
11126;DHT22;5617;54.046;10.676;2022-12-29T07:09:55;10.30;99.90
11126;DHT22;5617;54.046;10.676;2022-12-29T07:12:03;10.30;99.90
11126;DHT22;5617;54.046;10.676;2022-12-29T07:14:11;10.20;99.90
11126;DHT22;5617;54.046;10.676;2022-12-29T07:16:18;10.20;99.90
11126;DHT22;5617;54.046;10.676;2022-12-29T07:18:25;10.20;99.90
11126;DHT22;5617;54.046;10.676;2022-12-29T07:20:32;10.20;99.90
11126;DHT22;5617;54.046;10.676;2022-12-29T07:22:39;10.20;99.90
11126;DHT22;5617;54.046;10.676;2022-12-29T07:24:46;10.20;99.90
11126;DHT22;5617;54.046;10.676;2022-12-29T07:26:53;10.20;99.90
11126;DHT22;5617;54.046;10.676;2022-12-29T07:29:01;10.20;99.90
11126;DHT22;5617;54.046;10.676;2022-12-29T07:31:13;10.30;99.90
11126;DHT22;5617;54.046;10.676;2022-12-29T07:33:20;10.20;99.90
11126;DHT22;5617;54.046;10.676;2022-12-29T07:35:27;10.10;99.90
11126;DHT22;5617;54.046;10.676;2022-12-29T07:37:34;10.10;99.90
11126;DHT22;5617;54.046;10.676;2022-12-29T07:39:42;10.10;99.90
11126;DHT22;5617;54.046;10.676;2022-12-29T07:41:49;10.10;99.90
11126;DHT22;5617;54.046;10.676;2022-12-29T07:43:56;10.10;99.90
11126;DHT22;5617;54.046;10.676;2022-12-29T07:46:04;10.10;99.90
11126;DHT22;5617;54.046;10.676;2022-12-29T07:48:11;10.10;99.90
11126;DHT22;5617;54.046;10.676;2022-12-29T07:50:18;10.10;99.90
11126;DHT22;5617;54.046;10.676;2022-12-29T07:52:25;10.10;99.90
11126;DHT22;5617;54.046;10.676;2022-12-29T07:54:32;10.10;99.90
11126;DHT22;5617;54.046;10.676;2022-12-29T07:56:39;10.00;99.90
11126;DHT22;5617;54.046;10.676;2022-12-29T07:58:45;10.00;99.90
11126;DHT22;5617;54.046;10.676;2022-12-29T08:00:53;10.00;99.90
11126;DHT22;5617;54.046;10.676;2022-12-29T08:03:01;10.00;99.90
11126;DHT22;5617;54.046;10.676;2022-12-29T08:05:08;10.10;99.90
11126;DHT22;5617;54.046;10.676;2022-12-29T08:07:15;10.10;99.90
11126;DHT22;5617;54.046;10.676;2022-12-29T08:09:22;10.10;99.90
11126;DHT22;5617;54.046;10.676;2022-12-29T08:11:29;10.20;99.90
11126;DHT22;5617;54.046;10.676;2022-12-29T08:13:36;10.20;99.90
11126;DHT22;5617;54.046;10.676;2022-12-29T08:15:43;10.40;99.90
11126;DHT22;5617;54.046;10.676;2022-12-29T08:17:50;10.40;99.90
11126;DHT22;5617;54.046;10.676;2022-12-29T08:19:58;10.40;99.90
11126;DHT22;5617;54.046;10.676;2022-12-29T08:22:05;10.40;99.90
11126;DHT22;5617;54.046;10.676;2022-12-29T08:24:12;10.40;99.90
11126;DHT22;5617;54.046;10.676;2022-12-29T08:26:19;10.40;99.90
11126;DHT22;5617;54.046;10.676;2022-12-29T08:28:26;10.40;99.90
11126;DHT22;5617;54.046;10.676;2022-12-29T08:30:35;10.40;99.90
11126;DHT22;5617;54.046;10.676;2022-12-29T08:32:42;10.40;99.90
11126;DHT22;5617;54.046;10.676;2022-12-29T08:34:49;10.40;99.90
11126;DHT22;5617;54.046;10.676;2022-12-29T08:36:58;10.30;99.90
11126;DHT22;5617;54.046;10.676;2022-12-29T08:39:05;10.30;99.90
11126;DHT22;5617;54.046;10.676;2022-12-29T08:41:12;10.40;99.90
11126;DHT22;5617;54.046;10.676;2022-12-29T08:43:19;10.40;99.90
11126;DHT22;5617;54.046;10.676;2022-12-29T08:45:26;10.40;99.90
11126;DHT22;5617;54.046;10.676;2022-12-29T08:47:33;10.40;99.90
11126;DHT22;5617;54.046;10.676;2022-12-29T08:49:39;10.30;99.90
11126;DHT22;5617;54.046;10.676;2022-12-29T08:51:46;10.40;99.90
11126;DHT22;5617;54.046;10.676;2022-12-29T08:53:56;10.30;99.90
11126;DHT22;5617;54.046;10.676;2022-12-29T08:56:03;10.30;99.90
11126;DHT22;5617;54.046;10.676;2022-12-29T08:58:10;10.30;99.90
11126;DHT22;5617;54.046;10.676;2022-12-29T09:00:20;10.30;99.90
11126;DHT22;5617;54.046;10.676;2022-12-29T09:02:27;10.30;99.90
11126;DHT22;5617;54.046;10.676;2022-12-29T09:04:34;10.30;99.90
11126;DHT22;5617;54.046;10.676;2022-12-29T09:06:41;10.30;99.90
11126;DHT22;5617;54.046;10.676;2022-12-29T09:08:47;10.40;99.90
11126;DHT22;5617;54.046;10.676;2022-12-29T09:11:05;10.30;99.90
11126;DHT22;5617;54.046;10.676;2022-12-29T09:13:13;10.40;99.90
11126;DHT22;5617;54.046;10.676;2022-12-29T09:15:20;10.30;99.90
11126;DHT22;5617;54.046;10.676;2022-12-29T09:17:26;10.30;99.90
11126;DHT22;5617;54.046;10.676;2022-12-29T09:19:49;10.30;99.90
11126;DHT22;5617;54.046;10.676;2022-12-29T09:21:56;10.30;99.90
11126;DHT22;5617;54.046;10.676;2022-12-29T09:24:04;10.30;99.90
11126;DHT22;5617;54.046;10.676;2022-12-29T09:26:12;10.30;99.90
11126;DHT22;5617;54.046;10.676;2022-12-29T09:28:20;10.30;99.90
11126;DHT22;5617;54.046;10.676;2022-12-29T09:30:27;10.40;99.90
11126;DHT22;5617;54.046;10.676;2022-12-29T09:32:34;10.40;99.90
11126;DHT22;5617;54.046;10.676;2022-12-29T09:34:41;10.40;99.90
11126;DHT22;5617;54.046;10.676;2022-12-29T09:36:48;10.50;99.90
11126;DHT22;5617;54.046;10.676;2022-12-29T09:38:56;10.50;99.90
11126;DHT22;5617;54.046;10.676;2022-12-29T09:41:11;10.50;99.90
11126;DHT22;5617;54.046;10.676;2022-12-29T09:43:39;10.50;99.90
11126;DHT22;5617;54.046;10.676;2022-12-29T09:45:54;10.50;99.90
11126;DHT22;5617;54.046;10.676;2022-12-29T09:48:03;10.60;99.90
11126;DHT22;5617;54.046;10.676;2022-12-29T09:50:20;10.70;99.90
11126;DHT22;5617;54.046;10.676;2022-12-29T09:52:31;10.70;99.90
11126;DHT22;5617;54.046;10.676;2022-12-29T09:54:43;10.80;99.90
11126;DHT22;5617;54.046;10.676;2022-12-29T09:56:53;10.90;99.90
11126;DHT22;5617;54.046;10.676;2022-12-29T09:59:05;11.00;99.90
11126;DHT22;5617;54.046;10.676;2022-12-29T10:01:23;11.20;99.90
11126;DHT22;5617;54.046;10.676;2022-12-29T10:03:45;11.20;99.90
11126;DHT22;5617;54.046;10.676;2022-12-29T10:05:58;11.20;99.90
11126;DHT22;5617;54.046;10.676;2022-12-29T10:08:24;11.20;99.90
11126;DHT22;5617;54.046;10.676;2022-12-29T10:10:37;11.20;99.90
11126;DHT22;5617;54.046;10.676;2022-12-29T10:12:54;11.20;99.90
11126;DHT22;5617;54.046;10.676;2022-12-29T10:15:13;11.30;99.90
11126;DHT22;5617;54.046;10.676;2022-12-29T10:17:29;11.30;99.90
11126;DHT22;5617;54.046;10.676;2022-12-29T10:19:51;11.30;99.90
11126;DHT22;5617;54.046;10.676;2022-12-29T10:22:10;11.30;99.90
11126;DHT22;5617;54.046;10.676;2022-12-29T10:24:22;11.30;99.90
11126;DHT22;5617;54.046;10.676;2022-12-29T10:26:32;11.30;99.90
11126;DHT22;5617;54.046;10.676;2022-12-29T10:28:43;11.30;99.90
11126;DHT22;5617;54.046;10.676;2022-12-29T10:30:53;11.30;99.90
11126;DHT22;5617;54.046;10.676;2022-12-29T10:33:06;11.30;99.90
11126;DHT22;5617;54.046;10.676;2022-12-29T10:35:19;11.30;99.90
11126;DHT22;5617;54.046;10.676;2022-12-29T10:37:32;11.30;99.90
11126;DHT22;5617;54.046;10.676;2022-12-29T10:39:46;11.30;99.90
11126;DHT22;5617;54.046;10.676;2022-12-29T10:41:57;11.20;99.90
11126;DHT22;5617;54.046;10.676;2022-12-29T10:44:10;11.20;99.90
11126;DHT22;5617;54.046;10.676;2022-12-29T10:46:23;11.20;99.90
11126;DHT22;5617;54.046;10.676;2022-12-29T10:48:32;11.20;99.90
11126;DHT22;5617;54.046;10.676;2022-12-29T10:50:40;11.20;99.90
11126;DHT22;5617;54.046;10.676;2022-12-29T10:52:48;11.20;99.90
11126;DHT22;5617;54.046;10.676;2022-12-29T10:54:58;11.20;99.90
11126;DHT22;5617;54.046;10.676;2022-12-29T10:57:10;11.10;99.90
11126;DHT22;5617;54.046;10.676;2022-12-29T10:59:21;11.10;99.90
11126;DHT22;5617;54.046;10.676;2022-12-29T11:01:36;11.20;99.90
11126;DHT22;5617;54.046;10.676;2022-12-29T11:03:58;11.30;99.90
11126;DHT22;5617;54.046;10.676;2022-12-29T11:06:08;11.40;99.90
11126;DHT22;5617;54.046;10.676;2022-12-29T11:08:20;11.50;99.90
11126;DHT22;5617;54.046;10.676;2022-12-29T11:10:35;11.60;99.90
11126;DHT22;5617;54.046;10.676;2022-12-29T11:12:56;11.60;99.90
11126;DHT22;5617;54.046;10.676;2022-12-29T11:15:13;11.50;99.90
11126;DHT22;5617;54.046;10.676;2022-12-29T11:17:21;11.50;99.90
11126;DHT22;5617;54.046;10.676;2022-12-29T11:19:30;11.50;99.90
11126;DHT22;5617;54.046;10.676;2022-12-29T11:21:38;11.50;99.90
11126;DHT22;5617;54.046;10.676;2022-12-29T11:23:55;11.60;99.90
11126;DHT22;5617;54.046;10.676;2022-12-29T11:26:16;11.60;99.90
11126;DHT22;5617;54.046;10.676;2022-12-29T11:28:23;11.60;99.90
11126;DHT22;5617;54.046;10.676;2022-12-29T11:30:35;11.60;99.90
11126;DHT22;5617;54.046;10.676;2022-12-29T11:32:50;11.60;99.90
11126;DHT22;5617;54.046;10.676;2022-12-29T11:34:58;11.50;99.90
11126;DHT22;5617;54.046;10.676;2022-12-29T11:37:11;11.50;99.90
11126;DHT22;5617;54.046;10.676;2022-12-29T11:39:27;11.50;99.90
11126;DHT22;5617;54.046;10.676;2022-12-29T11:41:35;11.40;99.90
11126;DHT22;5617;54.046;10.676;2022-12-29T11:43:43;11.40;99.90
11126;DHT22;5617;54.046;10.676;2022-12-29T11:45:52;11.40;99.90
11126;DHT22;5617;54.046;10.676;2022-12-29T11:48:06;11.40;99.90
11126;DHT22;5617;54.046;10.676;2022-12-29T11:50:17;11.40;99.90
11126;DHT22;5617;54.046;10.676;2022-12-29T11:52:27;11.40;99.90
11126;DHT22;5617;54.046;10.676;2022-12-29T11:54:37;11.40;99.90
11126;DHT22;5617;54.046;10.676;2022-12-29T11:56:44;11.50;99.90
11126;DHT22;5617;54.046;10.676;2022-12-29T11:58:50;11.50;99.90
11126;DHT22;5617;54.046;10.676;2022-12-29T12:01:01;11.50;99.90
11126;DHT22;5617;54.046;10.676;2022-12-29T12:03:13;11.50;99.90
11126;DHT22;5617;54.046;10.676;2022-12-29T12:05:27;11.50;99.90
11126;DHT22;5617;54.046;10.676;2022-12-29T12:07:41;11.40;99.90
11126;DHT22;5617;54.046;10.676;2022-12-29T12:09:51;11.40;99.90
11126;DHT22;5617;54.046;10.676;2022-12-29T12:12:01;11.40;99.90
11126;DHT22;5617;54.046;10.676;2022-12-29T12:14:15;11.40;99.90
11126;DHT22;5617;54.046;10.676;2022-12-29T12:16:28;11.40;99.90
11126;DHT22;5617;54.046;10.676;2022-12-29T12:18:43;11.40;99.90
11126;DHT22;5617;54.046;10.676;2022-12-29T12:20:54;11.40;99.90
11126;DHT22;5617;54.046;10.676;2022-12-29T12:23:10;11.40;99.90
11126;DHT22;5617;54.046;10.676;2022-12-29T12:25:21;11.30;99.90
11126;DHT22;5617;54.046;10.676;2022-12-29T12:27:31;11.30;99.90
11126;DHT22;5617;54.046;10.676;2022-12-29T12:29:46;11.30;99.90
11126;DHT22;5617;54.046;10.676;2022-12-29T12:31:59;11.30;99.90
11126;DHT22;5617;54.046;10.676;2022-12-29T12:34:15;11.30;99.90
11126;DHT22;5617;54.046;10.676;2022-12-29T12:36:46;11.30;99.90
11126;DHT22;5617;54.046;10.676;2022-12-29T12:39:00;11.30;99.90
11126;DHT22;5617;54.046;10.676;2022-12-29T12:41:10;11.40;99.90
11126;DHT22;5617;54.046;10.676;2022-12-29T12:43:33;11.40;99.90
11126;DHT22;5617;54.046;10.676;2022-12-29T12:45:49;11.40;99.90
11126;DHT22;5617;54.046;10.676;2022-12-29T12:48:10;11.50;99.90
11126;DHT22;5617;54.046;10.676;2022-12-29T12:50:29;11.50;99.90
11126;DHT22;5617;54.046;10.676;2022-12-29T12:52:49;11.60;99.90
11126;DHT22;5617;54.046;10.676;2022-12-29T12:55:16;11.60;99.90
11126;DHT22;5617;54.046;10.676;2022-12-29T12:57:32;11.50;99.90
11126;DHT22;5617;54.046;10.676;2022-12-29T12:59:52;11.50;99.90
11126;DHT22;5617;54.046;10.676;2022-12-29T13:02:13;11.40;99.90
11126;DHT22;5617;54.046;10.676;2022-12-29T13:04:43;11.40;99.90
11126;DHT22;5617;54.046;10.676;2022-12-29T13:07:00;11.40;99.90
11126;DHT22;5617;54.046;10.676;2022-12-29T13:09:21;11.40;99.90
11126;DHT22;5617;54.046;10.676;2022-12-29T13:11:38;11.30;99.90
11126;DHT22;5617;54.046;10.676;2022-12-29T13:14:04;11.40;99.90
11126;DHT22;5617;54.046;10.676;2022-12-29T13:16:19;11.30;99.90
11126;DHT22;5617;54.046;10.676;2022-12-29T13:18:35;11.30;99.90
11126;DHT22;5617;54.046;10.676;2022-12-29T13:20:47;11.30;99.90
11126;DHT22;5617;54.046;10.676;2022-12-29T13:23:02;11.20;99.90
11126;DHT22;5617;54.046;10.676;2022-12-29T13:25:21;11.20;99.90
11126;DHT22;5617;54.046;10.676;2022-12-29T13:27:35;11.10;99.90
11126;DHT22;5617;54.046;10.676;2022-12-29T13:29:50;11.10;99.90
11126;DHT22;5617;54.046;10.676;2022-12-29T13:32:12;11.00;99.90
11126;DHT22;5617;54.046;10.676;2022-12-29T13:34:32;11.00;99.90
11126;DHT22;5617;54.046;10.676;2022-12-29T13:36:45;10.90;99.90
11126;DHT22;5617;54.046;10.676;2022-12-29T13:39:04;10.90;99.90
11126;DHT22;5617;54.046;10.676;2022-12-29T13:41:16;10.80;99.90
11126;DHT22;5617;54.046;10.676;2022-12-29T13:43:27;10.80;99.90
11126;DHT22;5617;54.046;10.676;2022-12-29T13:45:35;10.70;99.90
11126;DHT22;5617;54.046;10.676;2022-12-29T13:47:45;10.60;99.90
11126;DHT22;5617;54.046;10.676;2022-12-29T13:49:57;10.50;99.90
11126;DHT22;5617;54.046;10.676;2022-12-29T13:52:09;10.40;99.90
11126;DHT22;5617;54.046;10.676;2022-12-29T13:54:28;10.40;99.90
11126;DHT22;5617;54.046;10.676;2022-12-29T13:56:39;10.30;99.90